createdAt,value
2017-08-08T00:01:00.249Z,20.03
2017-08-08T00:03:28.653Z,20.05
2017-08-08T00:05:57.320Z,19.99
2017-08-08T00:08:25.728Z,20.05
2017-08-08T00:10:54.081Z,19.92
2017-08-08T00:13:22.939Z,20.00
2017-08-08T00:15:51.297Z,20.07
2017-08-08T00:18:20.437Z,20.03
2017-08-08T00:20:49.300Z,20.01
2017-08-08T00:23:17.646Z,19.98
2017-08-08T00:25:46.033Z,19.86
2017-08-08T00:28:14.757Z,19.77
2017-08-08T00:30:43.114Z,19.74
2017-08-08T00:33:11.464Z,19.75
2017-08-08T00:35:40.289Z,19.86
2017-08-08T00:38:08.626Z,19.74
2017-08-08T00:40:37.006Z,19.72
2017-08-08T00:43:05.792Z,19.71
2017-08-08T00:45:34.148Z,19.73
2017-08-08T00:48:02.548Z,19.62
2017-08-08T00:50:31.281Z,19.64
2017-08-08T00:53:00.405Z,19.70
2017-08-08T00:55:28.762Z,19.55
2017-08-08T00:57:57.487Z,19.58
2017-08-08T01:00:25.909Z,19.44
2017-08-08T01:02:54.317Z,19.28
2017-08-08T01:05:23.315Z,19.41
2017-08-08T01:07:51.718Z,19.34
2017-08-08T01:10:20.037Z,19.48
2017-08-08T01:12:48.753Z,19.19
2017-08-08T01:15:17.118Z,19.25
2017-08-08T01:17:46.324Z,19.18
2017-08-08T01:20:15.014Z,19.35
2017-08-08T01:22:43.353Z,19.33
2017-08-08T01:25:11.693Z,19.32
2017-08-08T01:27:40.478Z,19.21
2017-08-08T01:30:08.853Z,19.30
2017-08-08T01:32:37.204Z,19.28
2017-08-08T01:35:06.104Z,19.25
2017-08-08T01:37:34.445Z,19.33
2017-08-08T01:40:02.815Z,19.24
2017-08-08T01:42:31.504Z,19.24
2017-08-08T01:44:59.846Z,19.20
2017-08-08T01:47:28.194Z,19.24
2017-08-08T01:49:56.949Z,19.22
2017-08-08T01:52:25.290Z,19.17
2017-08-08T01:54:53.634Z,19.22
2017-08-08T01:57:23.257Z,19.23
2017-08-08T01:59:51.623Z,19.26
2017-08-08T02:02:20.752Z,19.31
2017-08-08T02:04:49.543Z,19.24
2017-08-08T02:07:17.887Z,19.27
2017-08-08T02:09:46.251Z,19.13
2017-08-08T02:12:15.015Z,19.25
2017-08-08T02:14:43.973Z,19.25
2017-08-08T02:17:12.326Z,19.14
2017-08-08T02:19:40.989Z,19.14
2017-08-08T02:22:09.345Z,19.13
2017-08-08T02:24:37.661Z,19.09
2017-08-08T02:27:06.481Z,19.11
2017-08-08T02:29:34.825Z,19.14
2017-08-08T02:32:03.200Z,19.24
2017-08-08T02:34:32.084Z,19.22
2017-08-08T02:37:00.429Z,19.30
2017-08-08T02:39:28.779Z,19.27
2017-08-08T02:41:58.393Z,19.28
2017-08-08T02:44:26.744Z,19.23
2017-08-08T02:46:55.887Z,19.27
2017-08-08T02:49:24.517Z,19.35
2017-08-08T02:51:53.656Z,19.25
2017-08-08T02:54:22.130Z,19.27
2017-08-08T02:56:51.057Z,19.34
2017-08-08T02:59:19.510Z,19.19
2017-08-08T03:01:47.879Z,19.24
2017-08-08T03:04:16.599Z,19.22
2017-08-08T03:06:44.940Z,19.12
2017-08-08T03:09:13.317Z,19.09
2017-08-08T03:11:42.212Z,19.19
2017-08-08T03:14:10.559Z,19.18
2017-08-08T03:16:38.899Z,19.18
2017-08-08T03:19:07.582Z,19.06
2017-08-08T03:21:35.943Z,19.07
2017-08-08T03:24:04.344Z,19.07
2017-08-08T03:26:33.333Z,19.15
2017-08-08T03:29:01.717Z,19.16
2017-08-08T03:31:30.090Z,19.08
2017-08-08T03:33:58.982Z,19.13
2017-08-08T03:36:27.353Z,19.10
2017-08-08T03:38:55.708Z,19.07
2017-08-08T03:41:24.482Z,18.94
2017-08-08T03:43:52.827Z,18.96
2017-08-08T03:46:21.171Z,18.83
2017-08-08T03:48:49.810Z,18.93
2017-08-08T03:51:18.153Z,18.95
2017-08-08T03:53:46.512Z,18.97
2017-08-08T03:56:15.312Z,19.00
2017-08-08T03:58:43.674Z,19.02
2017-08-08T04:01:12.050Z,18.97
2017-08-08T04:03:40.755Z,19.00
2017-08-08T04:06:09.094Z,19.14
2017-08-08T04:08:37.446Z,18.99
2017-08-08T04:11:06.200Z,19.11
2017-08-08T04:13:34.537Z,19.03
2017-08-08T04:16:02.904Z,19.17
2017-08-08T04:18:31.592Z,19.18
2017-08-08T04:20:59.954Z,19.15
2017-08-08T04:23:28.382Z,19.10
2017-08-08T04:25:57.453Z,19.17
2017-08-08T04:28:25.835Z,19.12
2017-08-08T04:30:54.197Z,19.09
2017-08-08T04:33:22.939Z,19.19
2017-08-08T04:35:51.273Z,19.30
2017-08-08T04:38:19.633Z,19.28
2017-08-08T04:40:48.334Z,19.16
2017-08-08T04:43:16.693Z,19.17
2017-08-08T04:45:45.047Z,19.20
2017-08-08T04:48:13.864Z,19.25
2017-08-08T04:50:42.223Z,19.33
2017-08-08T04:53:10.568Z,19.36
2017-08-08T04:55:39.224Z,19.44
2017-08-08T04:58:07.571Z,19.31
2017-08-08T05:00:35.910Z,19.44
2017-08-08T05:03:05.170Z,19.59
2017-08-08T05:05:33.513Z,19.61
2017-08-08T05:08:01.863Z,19.93
2017-08-08T05:10:30.808Z,20.00
2017-08-08T05:12:59.171Z,20.20
2017-08-08T05:15:27.988Z,20.14
2017-08-08T05:17:56.812Z,20.57
2017-08-08T05:20:25.154Z,20.87
2017-08-08T05:22:53.521Z,20.97
2017-08-08T05:25:23.075Z,21.03
2017-08-08T05:27:51.432Z,21.30
2017-08-08T05:30:19.799Z,21.60
2017-08-08T05:32:48.745Z,21.74
2017-08-08T05:35:17.094Z,21.72
2017-08-08T05:37:45.469Z,21.73
2017-08-08T05:40:14.417Z,21.71
2017-08-08T05:42:42.771Z,21.68
2017-08-08T05:45:11.093Z,21.67
2017-08-08T05:47:39.740Z,21.49
2017-08-08T05:50:08.872Z,21.54
2017-08-08T05:52:37.222Z,21.64
2017-08-08T05:55:05.982Z,21.75
2017-08-08T05:57:34.311Z,21.79
2017-08-08T06:00:02.652Z,21.97
2017-08-08T06:02:31.553Z,22.08
2017-08-08T06:04:59.938Z,22.27
2017-08-08T06:07:28.291Z,22.62
2017-08-08T06:09:57.033Z,22.92
2017-08-08T06:12:25.401Z,22.89
2017-08-08T06:14:53.761Z,23.20
2017-08-08T06:17:22.695Z,23.27
2017-08-08T06:19:51.048Z,23.35
2017-08-08T06:22:19.382Z,23.44
2017-08-08T06:24:48.001Z,23.45
2017-08-08T06:27:16.365Z,23.71
2017-08-08T06:29:44.709Z,23.55
2017-08-08T06:32:13.352Z,23.64
2017-08-08T06:34:41.684Z,23.64
2017-08-08T06:37:10.031Z,23.57
2017-08-08T06:39:38.802Z,23.70
2017-08-08T06:42:07.152Z,23.92
2017-08-08T06:44:35.497Z,23.90
2017-08-08T06:47:04.229Z,23.94
2017-08-08T06:49:32.570Z,23.96
2017-08-08T06:52:00.922Z,24.15
2017-08-08T06:54:29.691Z,24.11
2017-08-08T06:56:58.055Z,24.02
2017-08-08T06:59:26.384Z,23.72
2017-08-08T07:01:55.235Z,23.31
2017-08-08T07:04:23.586Z,23.68
2017-08-08T07:06:51.939Z,23.90
2017-08-08T07:09:20.790Z,24.14
2017-08-08T07:11:49.139Z,23.65
2017-08-08T07:14:18.260Z,24.15
2017-08-08T07:16:47.049Z,24.30
2017-08-08T07:19:16.034Z,24.59
2017-08-08T07:21:44.385Z,24.91
2017-08-08T07:24:13.137Z,25.24
2017-08-08T07:26:41.480Z,25.52
2017-08-08T07:29:09.838Z,24.77
2017-08-08T07:37:33.027Z,25.02
2017-08-08T07:40:01.370Z,25.12
2017-08-08T07:42:29.736Z,25.25
2017-08-08T07:44:58.735Z,25.47
2017-08-08T07:47:27.099Z,25.19
2017-08-08T07:49:55.473Z,25.39
2017-08-08T07:52:24.170Z,25.51
2017-08-08T07:54:52.539Z,25.43
2017-08-08T07:57:20.912Z,25.26
2017-08-08T07:59:49.596Z,25.71
2017-08-08T08:02:17.956Z,26.40
2017-08-08T08:04:46.319Z,26.92
2017-08-08T08:07:15.036Z,27.49
2017-08-08T08:09:43.406Z,27.00
2017-08-08T08:12:12.527Z,26.80
2017-08-08T08:14:41.334Z,26.97
2017-08-08T08:17:09.703Z,26.74
2017-08-08T08:19:38.482Z,27.04
2017-08-08T08:22:07.392Z,26.89
2017-08-08T08:24:35.777Z,27.01
2017-08-08T08:27:04.170Z,26.54
2017-08-08T08:29:33.268Z,26.21
2017-08-08T08:32:01.636Z,26.70
2017-08-08T08:34:30.020Z,27.31
2017-08-08T08:36:58.720Z,27.53
2017-08-08T08:39:27.122Z,27.41
2017-08-08T08:41:55.478Z,27.73
2017-08-08T08:44:24.133Z,27.63
2017-08-08T08:46:52.533Z,27.48
2017-08-08T08:49:20.881Z,27.20
2017-08-08T08:51:49.591Z,27.85
2017-08-08T08:54:17.951Z,28.12
2017-08-08T08:56:46.300Z,27.97
2017-08-08T08:59:14.980Z,28.38
2017-08-08T09:01:43.343Z,29.12
2017-08-08T09:04:11.723Z,28.68
2017-08-08T09:06:40.362Z,28.86
2017-08-08T09:09:08.722Z,28.59
2017-08-08T09:11:37.072Z,28.75
2017-08-08T09:14:05.790Z,28.99
2017-08-08T09:16:34.155Z,27.84
2017-08-08T09:19:02.527Z,27.55
2017-08-08T09:21:31.946Z,27.82
2017-08-08T09:24:00.317Z,28.24
2017-08-08T09:26:29.454Z,28.08
2017-08-08T09:28:58.254Z,28.08
2017-08-08T09:31:26.630Z,27.85
2017-08-08T09:33:55.001Z,27.70
2017-08-08T09:36:23.885Z,28.12
2017-08-08T09:38:52.245Z,27.90
2017-08-08T09:41:20.597Z,27.85
2017-08-08T09:43:49.366Z,28.21
2017-08-08T09:46:17.733Z,27.57
2017-08-08T09:48:46.089Z,27.62
2017-08-08T09:51:14.800Z,27.61
2017-08-08T10:05:48.251Z,29.22
2017-08-08T10:08:16.643Z,28.70
2017-08-08T10:10:44.990Z,29.02
2017-08-08T10:13:13.693Z,29.28
2017-08-08T10:15:42.068Z,29.15
2017-08-08T10:18:10.444Z,29.40
2017-08-08T10:20:39.102Z,29.78
2017-08-08T10:23:07.460Z,29.74
2017-08-08T10:25:35.801Z,29.81
2017-08-08T10:28:04.572Z,29.41
2017-08-08T10:30:32.923Z,29.18
2017-08-08T10:33:01.317Z,29.07
2017-08-08T10:35:30.025Z,29.55
2017-08-08T10:37:58.391Z,29.26
2017-08-08T10:40:26.732Z,28.84
2017-08-08T10:42:55.512Z,29.05
2017-08-08T10:45:23.851Z,29.37
2017-08-08T10:47:52.207Z,28.95
2017-08-08T10:50:21.867Z,28.56
2017-08-08T10:52:50.196Z,28.45
2017-08-08T10:55:18.556Z,28.00
2017-08-08T10:57:47.393Z,28.87
2017-08-08T11:00:15.722Z,29.26
2017-08-08T11:02:44.115Z,29.18
2017-08-08T11:05:12.763Z,29.07
2017-08-08T11:07:41.137Z,29.15
2017-08-08T11:10:09.489Z,29.42
2017-08-08T11:12:38.508Z,29.58
2017-08-08T11:15:06.861Z,29.97
2017-08-08T11:17:35.210Z,30.04
2017-08-08T11:20:03.952Z,29.18
2017-08-08T11:22:32.285Z,28.51
2017-08-08T11:25:00.639Z,27.93
2017-08-08T11:27:29.400Z,28.36
2017-08-08T11:29:57.763Z,28.15
2017-08-08T11:32:26.127Z,28.44
2017-08-08T11:34:54.849Z,28.20
2017-08-08T11:37:23.219Z,27.69
2017-08-08T11:39:51.571Z,27.44
2017-08-08T11:42:20.228Z,27.19
2017-08-08T11:44:48.625Z,27.36
2017-08-08T11:47:17.725Z,27.71
2017-08-08T11:49:46.327Z,27.89
2017-08-08T11:52:14.663Z,27.61
2017-08-08T11:54:43.007Z,27.63
2017-08-08T11:57:11.762Z,27.58
2017-08-08T11:59:40.134Z,27.27
2017-08-08T12:02:08.483Z,27.60
2017-08-08T12:04:37.097Z,27.84
2017-08-08T12:07:05.448Z,28.06
2017-08-08T12:09:33.961Z,28.03
2017-08-08T12:12:02.676Z,28.12
2017-08-08T12:14:31.020Z,28.20
2017-08-08T12:17:00.138Z,28.26
2017-08-08T12:19:28.862Z,28.41
2017-08-08T12:21:57.223Z,28.86
2017-08-08T12:24:25.633Z,28.49
2017-08-08T12:26:54.272Z,28.66
2017-08-08T12:29:22.632Z,27.92
2017-08-08T12:31:50.992Z,28.39
2017-08-08T12:34:20.622Z,28.35
2017-08-08T12:36:48.977Z,28.54
2017-08-08T12:39:18.077Z,27.89
2017-08-08T12:41:46.759Z,27.88
2017-08-08T12:44:15.869Z,28.36
2017-08-08T12:46:44.988Z,28.74
2017-08-08T12:49:13.779Z,28.64
2017-08-08T12:51:42.130Z,29.24
2017-08-08T12:54:11.253Z,29.76
2017-08-08T12:56:40.041Z,29.41
2017-08-08T12:59:08.398Z,29.52
2017-08-08T13:01:37.501Z,29.66
2017-08-08T13:04:06.517Z,30.19
2017-08-08T13:06:34.858Z,30.14
2017-08-08T13:09:03.989Z,30.09
2017-08-08T13:11:32.671Z,29.57
2017-08-08T13:14:01.035Z,29.96
2017-08-08T13:16:29.388Z,29.99
2017-08-08T13:18:58.023Z,29.68
2017-08-08T13:21:26.382Z,29.43
2017-08-08T13:23:54.736Z,29.22
2017-08-08T13:26:23.685Z,29.10
2017-08-08T13:28:52.056Z,28.83
2017-08-08T13:31:20.462Z,28.87
2017-08-08T13:33:49.093Z,28.18
2017-08-08T13:36:17.452Z,28.14
2017-08-08T13:38:46.600Z,28.20
2017-08-08T13:41:15.387Z,27.85
2017-08-08T13:43:43.736Z,27.86
2017-08-08T13:46:12.859Z,27.77
2017-08-08T13:48:41.734Z,27.71
2017-08-08T13:51:10.082Z,27.95
2017-08-08T13:53:38.414Z,28.35
2017-08-08T13:56:07.071Z,28.22
2017-08-08T13:58:35.434Z,28.31
2017-08-08T14:01:04.550Z,27.84
2017-08-08T14:03:33.552Z,27.88
2017-08-08T14:06:01.924Z,28.03
2017-08-08T14:08:30.283Z,28.02
2017-08-08T14:10:59.099Z,27.89
2017-08-08T14:13:27.444Z,27.71
2017-08-08T14:15:55.803Z,27.87
2017-08-08T14:18:24.572Z,28.02
2017-08-08T14:20:52.928Z,27.91
2017-08-08T14:23:21.273Z,27.67
2017-08-08T14:25:50.776Z,27.86
2017-08-08T14:28:19.191Z,27.97
2017-08-08T14:30:47.561Z,28.10
2017-08-08T14:33:16.579Z,28.19
2017-08-08T14:35:44.944Z,28.43
2017-08-08T14:38:13.300Z,28.57
2017-08-08T14:40:42.137Z,28.23
2017-08-08T14:43:10.522Z,27.58
2017-08-08T14:45:38.916Z,27.85
2017-08-08T14:48:07.585Z,27.97
2017-08-08T14:50:36.015Z,27.44
2017-08-08T14:53:04.371Z,27.10
2017-08-08T14:55:33.138Z,26.99
2017-08-08T14:58:01.484Z,27.10
2017-08-08T15:00:29.835Z,27.23
2017-08-08T15:02:59.395Z,27.23
2017-08-08T15:05:27.790Z,27.27
2017-08-08T15:07:56.146Z,26.83
2017-08-08T15:10:24.844Z,27.08
2017-08-08T15:12:53.192Z,27.00
2017-08-08T15:15:21.560Z,27.30
2017-08-08T15:17:50.379Z,27.55
2017-08-08T15:20:18.765Z,27.45
2017-08-08T15:22:47.126Z,27.41
2017-08-08T15:25:15.903Z,27.44
2017-08-08T15:27:44.316Z,27.27
2017-08-08T15:30:12.667Z,27.19
2017-08-08T15:32:41.348Z,27.11
2017-08-08T15:35:09.713Z,27.29
2017-08-08T15:37:38.137Z,27.06
2017-08-08T15:40:07.229Z,27.09
2017-08-08T15:42:35.583Z,27.11
2017-08-08T15:45:03.929Z,27.10
2017-08-08T15:47:32.900Z,27.20
2017-08-08T15:50:01.241Z,27.19
2017-08-08T15:52:29.596Z,27.07
2017-08-08T15:54:58.499Z,26.76
2017-08-08T15:57:26.865Z,26.79
2017-08-08T15:59:55.211Z,26.91
2017-08-08T16:02:24.014Z,26.81
2017-08-08T16:04:53.146Z,26.89
2017-08-08T16:07:21.512Z,26.79
2017-08-08T16:09:50.248Z,26.66
2017-08-08T16:12:18.669Z,26.61
2017-08-08T16:14:47.047Z,26.45
2017-08-08T16:17:15.741Z,26.49
2017-08-08T16:19:44.858Z,26.47
2017-08-08T16:22:13.226Z,26.61
2017-08-08T16:24:42.079Z,26.51
2017-08-08T16:27:10.425Z,26.35
2017-08-08T16:29:38.786Z,26.19
2017-08-08T16:32:07.766Z,26.24
2017-08-08T16:34:36.112Z,26.22
2017-08-08T16:37:04.462Z,26.22
2017-08-08T16:39:33.464Z,26.16
2017-08-08T16:42:01.814Z,26.14
2017-08-08T16:44:30.154Z,26.18
2017-08-08T16:46:59.309Z,26.04
2017-08-08T16:49:27.649Z,26.13
2017-08-08T16:51:56.772Z,26.33
2017-08-08T16:54:25.553Z,26.23
2017-08-08T16:56:53.893Z,26.21
2017-08-08T16:59:22.249Z,26.08
2017-08-08T17:01:50.877Z,25.76
2017-08-08T17:04:19.261Z,25.77
2017-08-08T17:06:47.622Z,25.76
2017-08-08T17:09:17.202Z,25.90
2017-08-08T17:11:45.597Z,25.69
2017-08-08T17:14:13.985Z,25.61
2017-08-08T17:16:42.849Z,25.55
2017-08-08T17:19:11.206Z,25.55
2017-08-08T17:21:39.570Z,25.92
2017-08-08T17:24:08.364Z,25.89
2017-08-08T17:26:36.697Z,25.66
2017-08-08T17:29:05.042Z,25.61
2017-08-08T17:31:33.849Z,25.55
2017-08-08T17:34:02.270Z,25.53
2017-08-08T17:36:30.625Z,25.29
2017-08-08T17:38:59.268Z,25.17
2017-08-08T17:41:27.646Z,25.12
2017-08-08T17:43:56.031Z,25.25
2017-08-08T17:46:24.921Z,25.21
2017-08-08T17:48:53.275Z,25.30
2017-08-08T17:51:21.626Z,25.26
2017-08-08T17:53:50.562Z,25.10
2017-08-08T17:56:18.960Z,25.28
2017-08-08T17:58:48.186Z,25.19
2017-08-08T18:01:17.005Z,25.35
2017-08-08T18:03:45.375Z,25.41
2017-08-08T18:06:13.802Z,25.00
2017-08-08T18:08:42.468Z,24.55
2017-08-08T18:11:10.842Z,24.60
2017-08-08T18:13:39.222Z,24.33
2017-08-08T18:16:08.054Z,24.36
2017-08-08T18:18:36.409Z,24.39
2017-08-08T18:21:04.779Z,24.54
2017-08-08T18:23:33.549Z,24.36
2017-08-08T18:26:01.915Z,24.09
2017-08-08T18:28:30.265Z,24.22
2017-08-08T18:30:59.006Z,24.35
2017-08-08T18:33:27.382Z,24.34
2017-08-08T18:35:56.083Z,24.35
2017-08-08T18:38:24.811Z,24.33
2017-08-08T18:40:53.181Z,24.48
2017-08-08T18:43:21.555Z,24.18
2017-08-08T18:45:50.323Z,23.80
2017-08-08T18:48:19.446Z,23.98
2017-08-08T18:50:47.796Z,23.93
2017-08-08T18:53:16.475Z,24.01
2017-08-08T18:55:44.820Z,23.76
2017-08-08T18:58:13.163Z,23.86
2017-08-08T19:00:44.325Z,23.89
2017-08-08T19:03:12.740Z,24.01
2017-08-08T19:05:41.080Z,24.08
2017-08-08T19:08:09.798Z,24.19
2017-08-08T19:10:38.168Z,24.08
2017-08-08T19:13:06.524Z,24.28
2017-08-08T19:15:35.187Z,24.17
2017-08-08T19:18:03.542Z,24.14
2017-08-08T19:20:31.903Z,24.11
2017-08-08T19:23:00.803Z,24.04
2017-08-08T19:25:29.176Z,24.05
2017-08-08T19:27:57.555Z,24.04
2017-08-08T19:30:26.288Z,24.12
2017-08-08T19:32:54.678Z,24.15
2017-08-08T19:35:23.047Z,23.96
2017-08-08T19:37:51.706Z,23.75
2017-08-08T19:40:20.052Z,23.43
2017-08-08T19:42:49.174Z,23.61
2017-08-08T19:45:17.944Z,23.60
2017-08-08T19:47:46.300Z,23.53
2017-08-08T19:50:14.667Z,23.59
2017-08-08T19:52:43.395Z,23.42
2017-08-08T19:55:11.771Z,23.41
2017-08-08T19:57:40.139Z,23.43
2017-08-08T20:00:08.784Z,23.45
2017-08-08T20:02:37.137Z,23.37
2017-08-08T20:05:05.496Z,23.09
2017-08-08T20:07:34.493Z,22.99
2017-08-08T20:10:02.833Z,22.82
2017-08-08T20:12:31.200Z,22.82
2017-08-08T20:14:59.843Z,22.73
2017-08-08T20:17:28.178Z,22.70
2017-08-08T20:19:56.549Z,22.59
2017-08-08T20:22:25.233Z,22.49
2017-08-08T20:24:53.585Z,22.47
2017-08-08T20:27:21.957Z,22.70
2017-08-08T20:29:50.814Z,22.75
2017-08-08T20:32:19.178Z,22.71
2017-08-08T20:34:47.546Z,22.68
2017-08-08T20:37:16.322Z,22.60
2017-08-08T20:39:44.661Z,22.62
2017-08-08T20:42:13.072Z,22.55
2017-08-08T20:44:41.723Z,22.64
2017-08-08T20:47:10.099Z,22.46
2017-08-08T20:49:38.458Z,22.40
2017-08-08T20:52:07.315Z,22.31
2017-08-08T20:54:35.694Z,22.31
2017-08-08T20:57:04.030Z,22.48
2017-08-08T20:59:32.734Z,22.59
2017-08-08T21:02:01.120Z,22.50
2017-08-08T21:04:29.507Z,22.44
2017-08-08T21:06:58.516Z,22.52
2017-08-08T21:09:26.910Z,22.52
2017-08-08T21:11:55.299Z,22.47
2017-08-08T21:14:24.246Z,22.50
2017-08-08T21:16:52.632Z,22.47
2017-08-08T21:19:21.046Z,22.11
2017-08-08T21:21:49.863Z,22.23
2017-08-08T21:24:18.245Z,22.00
2017-08-08T21:26:46.636Z,21.73
2017-08-08T21:29:15.531Z,21.78
2017-08-08T21:31:43.910Z,21.99
2017-08-08T21:34:12.298Z,22.07
2017-08-08T21:36:41.298Z,22.00
2017-08-08T21:39:09.696Z,22.13
2017-08-08T21:41:38.058Z,22.13
2017-08-08T21:44:06.686Z,22.13
2017-08-08T21:46:35.074Z,22.13
2017-08-08T21:49:03.487Z,22.09
2017-08-08T21:51:32.195Z,22.03
2017-08-08T21:54:00.586Z,22.04
2017-08-08T21:56:28.979Z,21.98
2017-08-08T21:58:57.809Z,21.92
2017-08-08T22:01:26.184Z,21.99
2017-08-08T22:03:54.566Z,21.79
2017-08-08T22:06:23.386Z,21.51
2017-08-08T22:08:51.759Z,21.66
2017-08-08T22:11:20.136Z,21.67
2017-08-08T22:13:48.937Z,21.62
2017-08-08T22:16:17.323Z,21.70
2017-08-08T22:18:45.691Z,21.70
2017-08-08T22:21:15.004Z,21.71
2017-08-08T22:23:44.525Z,21.60
2017-08-08T22:26:12.899Z,21.64
2017-08-08T22:28:41.675Z,21.76
2017-08-08T22:31:10.065Z,21.85
2017-08-08T22:33:38.462Z,21.92
2017-08-08T22:36:07.258Z,21.96
2017-08-08T22:38:35.644Z,21.78
2017-08-08T22:41:04.020Z,21.73
2017-08-08T22:43:32.758Z,21.90
2017-08-08T22:46:01.128Z,21.86
2017-08-08T22:48:29.521Z,21.91
2017-08-08T22:50:58.307Z,21.84
2017-08-08T22:53:26.679Z,21.73
2017-08-08T22:55:55.057Z,21.59
2017-08-08T22:58:23.758Z,21.57
2017-08-08T23:00:52.106Z,21.55
2017-08-08T23:03:20.508Z,21.42
2017-08-08T23:05:49.500Z,21.55
2017-08-08T23:08:17.877Z,21.50
2017-08-08T23:10:46.244Z,21.48
2017-08-08T23:13:15.167Z,21.42
2017-08-08T23:15:43.537Z,21.35
2017-08-08T23:18:11.918Z,21.26
2017-08-08T23:20:40.633Z,21.26
2017-08-08T23:23:09.018Z,21.20
2017-08-08T23:25:37.650Z,21.27
2017-08-08T23:28:06.526Z,21.27
2017-08-08T23:30:34.893Z,21.26
2017-08-08T23:33:03.251Z,21.13
2017-08-08T23:35:32.126Z,21.02
2017-08-08T23:38:00.506Z,21.07
2017-08-08T23:40:28.865Z,21.04
2017-08-08T23:42:57.542Z,21.04
2017-08-08T23:45:25.910Z,20.93
2017-08-08T23:47:54.268Z,20.84
2017-08-08T23:50:23.276Z,20.89
2017-08-08T23:52:51.706Z,20.96
2017-08-08T23:55:20.078Z,21.10
2017-08-08T23:57:48.873Z,20.89
